createdAt,value
2019-04-23T00:03:13.242Z,6.27
2019-04-23T00:08:41.591Z,8.53
2019-04-23T00:13:30.343Z,14.50
2019-04-23T00:18:37.754Z,7.13
2019-04-23T00:23:46.451Z,7.97
2019-04-23T00:28:47.927Z,7.87
2019-04-23T00:33:44.403Z,10.27
2019-04-23T00:39:01.274Z,31.53
2019-04-23T00:44:12.222Z,14.80
2019-04-23T00:49:05.315Z,7.93
2019-04-23T00:54:05.944Z,7.77
2019-04-23T00:59:08.878Z,13.30
2019-04-23T01:04:12.213Z,8.07
2019-04-23T01:09:25.758Z,7.87
2019-04-23T01:14:31.584Z,9.93
2019-04-23T01:19:50.084Z,10.43
2019-04-23T01:25:07.736Z,10.60
2019-04-23T01:30:24.936Z,13.03
2019-04-23T01:35:28.810Z,9.90
2019-04-23T01:40:36.453Z,14.73
2019-04-23T01:45:54.704Z,13.17
2019-04-23T01:50:50.128Z,8.33
2019-04-23T01:55:54.475Z,11.73
2019-04-23T02:01:00.850Z,8.10
2019-04-23T02:06:03.211Z,9.90
2019-04-23T02:11:07.970Z,12.63
2019-04-23T02:16:10.599Z,12.07
2019-04-23T02:21:15.547Z,14.33
2019-04-23T02:36:55.073Z,8.67
2019-04-23T02:41:54.312Z,13.33
2019-04-23T02:47:00.110Z,17.60
2019-04-23T02:57:05.671Z,11.33
2019-04-23T03:02:24.419Z,11.83
2019-04-23T03:07:22.338Z,10.03
2019-04-23T03:12:24.935Z,16.50
2019-04-23T03:17:31.014Z,11.50
2019-04-23T03:23:02.684Z,12.23
2019-04-23T03:27:56.170Z,11.03
2019-04-23T03:38:25.580Z,12.47
2019-04-23T03:43:14.477Z,11.33
2019-04-23T03:53:32.967Z,12.90
2019-04-23T04:04:09.706Z,16.70
2019-04-23T04:08:35.887Z,15.73
2019-04-23T04:24:01.577Z,14.13
2019-04-23T04:38:59.103Z,19.43
2019-04-23T04:44:26.331Z,14.80
2019-04-23T04:49:23.941Z,12.37
2019-04-23T04:54:21.515Z,21.13
2019-04-23T05:04:39.857Z,17.23
2019-04-23T05:09:48.263Z,19.93
2019-04-23T05:14:52.817Z,19.10
2019-04-23T05:19:52.775Z,14.63
2019-04-23T05:24:48.496Z,13.60
2019-04-23T05:30:06.085Z,20.70
2019-04-23T05:35:07.975Z,24.03
2019-04-23T05:40:02.623Z,19.10
2019-04-23T05:45:14.386Z,18.20
2019-04-23T05:50:18.608Z,17.00
2019-04-23T05:55:13.603Z,22.23
2019-04-23T06:00:23.633Z,17.60
2019-04-23T06:05:34.153Z,23.33
2019-04-23T06:10:33.982Z,19.73
2019-04-23T06:15:37.001Z,24.30
2019-04-23T06:20:48.739Z,14.13
2019-04-23T06:31:01.683Z,15.00
2019-04-23T06:36:05.893Z,13.90
2019-04-23T06:41:13.212Z,14.17
2019-04-23T06:46:11.948Z,14.90
2019-04-23T06:51:22.345Z,17.13
2019-04-23T06:56:24.686Z,14.33
2019-04-23T07:01:29.484Z,22.77
2019-04-23T07:06:56.781Z,14.50
2019-04-23T07:11:48.177Z,18.40
2019-04-23T07:16:38.559Z,14.60
2019-04-23T07:21:55.889Z,19.60
2019-04-23T07:26:49.365Z,15.90
2019-04-23T07:31:59.307Z,16.63
2019-04-23T07:37:05.196Z,15.10
2019-04-23T07:42:37.285Z,15.13
2019-04-23T07:48:08.119Z,12.33
2019-04-23T07:53:17.279Z,16.50
2019-04-23T07:58:17.283Z,10.50
2019-04-23T08:13:33.647Z,13.30
2019-04-23T08:18:29.973Z,13.80
2019-04-23T08:24:01.997Z,19.57
2019-04-23T08:29:06.497Z,11.70
2019-04-23T08:34:18.636Z,14.70
2019-04-23T08:39:12.258Z,11.17
2019-04-23T08:44:46.182Z,12.63
2019-04-23T08:49:50.627Z,11.70
2019-04-23T08:59:50.296Z,16.27
2019-04-23T09:05:00.763Z,17.43
2019-04-23T09:10:08.380Z,11.53
2019-04-23T09:15:13.026Z,16.83
2019-04-23T09:25:37.327Z,13.90
2019-04-23T09:35:42.764Z,16.63
2019-04-23T09:41:08.444Z,13.20
2019-04-23T09:46:12.431Z,15.17
2019-04-23T09:51:10.199Z,14.10
2019-04-23T09:56:14.111Z,21.93
2019-04-23T10:01:26.489Z,14.90
2019-04-23T10:06:12.448Z,14.77
2019-04-23T10:11:11.718Z,13.53
2019-04-23T10:16:17.253Z,8.13
2019-04-23T10:21:23.823Z,11.13
2019-04-23T10:26:28.205Z,11.00
2019-04-23T10:31:31.611Z,11.97
2019-04-23T10:36:36.172Z,11.43
2019-04-23T10:41:42.260Z,17.03
2019-04-23T10:47:30.528Z,14.63
2019-04-23T10:52:36.369Z,14.70
2019-04-23T10:57:36.094Z,15.10
2019-04-23T11:02:51.330Z,8.97
2019-04-23T11:07:42.088Z,14.10
2019-04-23T11:13:10.822Z,16.00
2019-04-23T11:18:17.398Z,27.53
2019-04-23T11:23:04.908Z,19.13
2019-04-23T11:28:20.731Z,15.13
2019-04-23T11:33:19.417Z,14.83
2019-04-23T11:43:34.230Z,22.27
2019-04-23T11:48:50.805Z,36.27
2019-04-23T11:58:46.916Z,24.67
2019-04-23T12:14:35.215Z,15.57
2019-04-23T12:29:47.555Z,20.80
2019-04-23T12:35:01.547Z,13.00
2019-04-23T12:40:12.899Z,16.70
2019-04-23T12:45:18.554Z,22.57
2019-04-23T12:50:38.792Z,25.37
2019-04-23T13:00:22.463Z,20.30
2019-04-23T13:15:34.745Z,29.03
2019-04-23T13:25:59.731Z,18.67
2019-04-23T13:31:08.525Z,23.13
2019-04-23T13:41:20.400Z,20.80
2019-04-23T13:46:17.805Z,18.50
2019-04-23T13:51:26.064Z,12.83
2019-04-23T14:01:46.929Z,9.63
2019-04-23T14:06:42.592Z,20.57
2019-04-23T14:11:40.114Z,14.80
2019-04-23T14:17:00.246Z,18.53
2019-04-23T14:22:07.073Z,13.53
2019-04-23T14:27:09.423Z,23.40
2019-04-23T14:32:15.605Z,27.10
2019-04-23T14:37:17.624Z,23.00
2019-04-23T14:42:30.942Z,8.33
2019-04-23T14:47:27.969Z,14.30
2019-04-23T14:52:38.917Z,27.93
2019-04-23T15:02:48.286Z,19.23
2019-04-23T15:07:42.111Z,19.93
2019-04-23T15:12:52.064Z,31.93
2019-04-23T15:17:55.673Z,26.00
2019-04-23T15:28:06.545Z,24.70
2019-04-23T15:33:19.914Z,24.77
2019-04-23T15:38:40.063Z,27.33
2019-04-23T15:43:22.575Z,28.10
2019-04-23T15:48:31.871Z,29.20
2019-04-23T15:53:25.975Z,31.67
2019-04-23T15:58:46.180Z,20.80
2019-04-23T16:03:15.596Z,37.90
2019-04-23T16:09:01.629Z,24.23
2019-04-23T16:19:24.754Z,25.50
2019-04-23T16:24:20.583Z,31.70
2019-04-23T16:29:47.927Z,26.70
2019-04-23T16:34:48.903Z,34.47
2019-04-23T16:40:01.610Z,43.77
2019-04-23T16:55:29.432Z,48.47
2019-04-23T17:05:23.686Z,26.77
2019-04-23T17:10:38.509Z,41.70
2019-04-23T17:15:48.162Z,59.03
2019-04-23T17:20:46.775Z,51.00
2019-04-23T17:25:48.557Z,44.90
2019-04-23T17:31:18.864Z,49.23
2019-04-23T17:42:12.514Z,31.40
2019-04-23T17:47:14.078Z,36.10
2019-04-23T17:52:20.326Z,44.77
2019-04-23T17:57:26.437Z,35.63
2019-04-23T18:02:51.670Z,43.90
2019-04-23T18:12:51.805Z,39.17
2019-04-23T18:23:00.448Z,54.00
2019-04-23T18:33:49.145Z,32.73
2019-04-23T18:38:24.897Z,27.97
2019-04-23T18:43:29.751Z,38.63
2019-04-23T19:04:20.067Z,21.40
2019-04-23T19:09:47.453Z,27.73
2019-04-23T19:14:56.153Z,32.60
2019-04-23T19:24:48.368Z,33.10
2019-04-23T19:30:07.082Z,33.00
2019-04-23T19:35:04.131Z,27.97
2019-04-23T19:40:10.047Z,27.40
2019-04-23T19:45:24.513Z,23.90
2019-04-23T19:50:34.386Z,14.40
2019-04-23T19:55:32.837Z,15.93
2019-04-23T20:01:01.655Z,19.37
2019-04-23T20:05:46.810Z,14.13
2019-04-23T20:10:46.421Z,14.47
2019-04-23T20:16:05.727Z,16.40
2019-04-23T20:32:27.328Z,19.33
2019-04-23T20:47:08.559Z,15.83
2019-04-23T20:52:07.339Z,13.43
2019-04-23T21:03:18.135Z,19.63
2019-04-23T21:28:38.184Z,29.13
2019-04-23T21:33:35.241Z,26.63
2019-04-23T21:38:58.679Z,19.70
2019-04-23T21:44:05.650Z,14.87
2019-04-23T21:49:08.910Z,25.40
2019-04-23T21:53:56.883Z,20.13
2019-04-23T21:59:06.842Z,20.20
2019-04-23T22:24:21.578Z,21.67
2019-04-23T22:29:33.081Z,23.87
2019-04-23T22:34:38.932Z,30.17
2019-04-23T22:39:46.543Z,25.57
2019-04-23T22:45:07.522Z,23.13
2019-04-23T22:50:02.713Z,30.50
2019-04-23T23:00:17.758Z,25.00
2019-04-23T23:05:22.430Z,27.23
2019-04-23T23:10:20.084Z,21.40
2019-04-23T23:15:24.160Z,30.43
2019-04-23T23:20:31.184Z,31.63
2019-04-23T23:25:30.872Z,23.93
2019-04-23T23:30:45.271Z,24.07
2019-04-23T23:35:44.419Z,26.83
2019-04-23T23:40:57.450Z,30.30
2019-04-23T23:46:03.354Z,30.30
2019-04-23T23:56:10.931Z,32.50
